sensor_id;sensor_type;location;lat;lon;timestamp;pressure;altitude;pressure_sealevel;temperature;humidity
12949;BME280;6539;49.476;8.484;2023-03-23T00:02:29;99808.28;;;16.50;48.41
12949;BME280;6539;49.476;8.484;2023-03-23T00:04:58;99801.78;;;16.44;48.53
12949;BME280;6539;49.476;8.484;2023-03-23T00:07:28;99806.72;;;16.49;48.56
12949;BME280;6539;49.476;8.484;2023-03-23T00:09:56;99799.50;;;16.52;48.37
12949;BME280;6539;49.476;8.484;2023-03-23T00:12:28;99793.81;;;16.55;48.39
12949;BME280;6539;49.476;8.484;2023-03-23T00:15:05;99789.31;;;16.49;48.33
12949;BME280;6539;49.476;8.484;2023-03-23T00:17:34;99789.06;;;16.56;48.38
12949;BME280;6539;49.476;8.484;2023-03-23T00:20:02;99784.56;;;16.49;48.58
12949;BME280;6539;49.476;8.484;2023-03-23T00:22:33;99779.78;;;16.50;48.23
12949;BME280;6539;49.476;8.484;2023-03-23T00:25:06;99783.00;;;16.48;48.13
12949;BME280;6539;49.476;8.484;2023-03-23T00:27:34;99780.84;;;16.43;48.28
12949;BME280;6539;49.476;8.484;2023-03-23T00:30:03;99779.59;;;16.35;48.27
12949;BME280;6539;49.476;8.484;2023-03-23T00:32:29;99783.00;;;16.30;48.45
12949;BME280;6539;49.476;8.484;2023-03-23T00:34:56;99776.06;;;16.35;48.21
12949;BME280;6539;49.476;8.484;2023-03-23T00:37:25;99775.63;;;16.36;47.94
12949;BME280;6539;49.476;8.484;2023-03-23T00:39:53;99771.59;;;16.37;47.94
12949;BME280;6539;49.476;8.484;2023-03-23T00:42:25;99774.53;;;16.43;47.74
12949;BME280;6539;49.476;8.484;2023-03-23T00:44:53;99773.78;;;16.42;47.48
12949;BME280;6539;49.476;8.484;2023-03-23T00:47:25;99770.41;;;16.47;47.27
12949;BME280;6539;49.476;8.484;2023-03-23T00:49:51;99764.22;;;16.43;47.36
12949;BME280;6539;49.476;8.484;2023-03-23T00:52:19;99775.94;;;16.47;47.28
12949;BME280;6539;49.476;8.484;2023-03-23T00:54:45;99778.38;;;16.36;47.67
12949;BME280;6539;49.476;8.484;2023-03-23T00:57:10;99779.75;;;16.32;47.75
12949;BME280;6539;49.476;8.484;2023-03-23T00:59:36;99774.84;;;16.36;47.67
12949;BME280;6539;49.476;8.484;2023-03-23T01:02:02;99772.53;;;16.34;47.72
12949;BME280;6539;49.476;8.484;2023-03-23T01:04:30;99762.06;;;16.29;48.04
12949;BME280;6539;49.476;8.484;2023-03-23T01:06:57;99765.13;;;16.31;48.10
12949;BME280;6539;49.476;8.484;2023-03-23T01:09:28;99762.22;;;16.26;48.04
12949;BME280;6539;49.476;8.484;2023-03-23T01:11:56;99772.66;;;16.31;48.03
12949;BME280;6539;49.476;8.484;2023-03-23T01:14:22;99763.25;;;16.28;48.16
12949;BME280;6539;49.476;8.484;2023-03-23T01:16:50;99755.72;;;16.20;48.21
12949;BME280;6539;49.476;8.484;2023-03-23T01:19:16;99762.66;;;16.24;48.08
12949;BME280;6539;49.476;8.484;2023-03-23T01:21:45;99758.34;;;16.23;48.01
12949;BME280;6539;49.476;8.484;2023-03-23T01:24:14;99753.44;;;16.27;48.00
12949;BME280;6539;49.476;8.484;2023-03-23T01:26:40;99748.06;;;16.24;47.98
12949;BME280;6539;49.476;8.484;2023-03-23T01:29:08;99742.34;;;16.18;47.91
12949;BME280;6539;49.476;8.484;2023-03-23T01:31:34;99743.25;;;16.24;47.94
12949;BME280;6539;49.476;8.484;2023-03-23T01:34:02;99734.19;;;16.24;48.01
12949;BME280;6539;49.476;8.484;2023-03-23T01:36:31;99734.50;;;16.17;47.99
12949;BME280;6539;49.476;8.484;2023-03-23T01:39:02;99733.09;;;16.12;48.28
12949;BME280;6539;49.476;8.484;2023-03-23T01:41:30;99737.84;;;16.12;48.42
12949;BME280;6539;49.476;8.484;2023-03-23T01:44:07;99738.94;;;16.14;48.40
12949;BME280;6539;49.476;8.484;2023-03-23T01:46:36;99727.56;;;16.12;48.44
12949;BME280;6539;49.476;8.484;2023-03-23T01:49:09;99722.03;;;16.12;48.55
12949;BME280;6539;49.476;8.484;2023-03-23T01:51:46;99720.47;;;16.02;48.86
12949;BME280;6539;49.476;8.484;2023-03-23T01:54:17;99719.22;;;16.03;48.88
12949;BME280;6539;49.476;8.484;2023-03-23T01:57:02;99714.00;;;16.05;48.98
12949;BME280;6539;49.476;8.484;2023-03-23T01:59:31;99708.13;;;15.94;49.35
12949;BME280;6539;49.476;8.484;2023-03-23T02:01:59;99700.13;;;15.96;49.67
12949;BME280;6539;49.476;8.484;2023-03-23T02:04:30;99710.16;;;15.93;49.62
12949;BME280;6539;49.476;8.484;2023-03-23T02:07:00;99711.09;;;15.99;49.43
12949;BME280;6539;49.476;8.484;2023-03-23T02:09:30;99718.00;;;16.04;49.59
12949;BME280;6539;49.476;8.484;2023-03-23T02:11:56;99721.53;;;15.95;49.66
12949;BME280;6539;49.476;8.484;2023-03-23T02:14:25;99722.91;;;15.91;49.93
12949;BME280;6539;49.476;8.484;2023-03-23T02:20:13;99733.53;;;16.01;49.89
12949;BME280;6539;49.476;8.484;2023-03-23T02:26:26;99721.41;;;16.08;49.68
12949;BME280;6539;49.476;8.484;2023-03-23T02:29:29;99717.09;;;16.07;49.87
12949;BME280;6539;49.476;8.484;2023-03-23T02:34:57;99706.31;;;16.00;50.14
12949;BME280;6539;49.476;8.484;2023-03-23T02:37:32;99691.53;;;16.03;49.97
12949;BME280;6539;49.476;8.484;2023-03-23T02:40:14;99691.09;;;15.95;50.32
12949;BME280;6539;49.476;8.484;2023-03-23T02:42:48;99690.91;;;15.90;50.27
12949;BME280;6539;49.476;8.484;2023-03-23T02:45:16;99684.75;;;15.86;50.77
12949;BME280;6539;49.476;8.484;2023-03-23T02:47:46;99683.06;;;15.88;50.73
12949;BME280;6539;49.476;8.484;2023-03-23T02:50:15;99672.16;;;15.85;50.86
12949;BME280;6539;49.476;8.484;2023-03-23T02:52:43;99669.22;;;15.88;50.80
12949;BME280;6539;49.476;8.484;2023-03-23T02:55:11;99666.63;;;15.85;50.88
12949;BME280;6539;49.476;8.484;2023-03-23T02:57:39;99676.28;;;15.89;50.59
12949;BME280;6539;49.476;8.484;2023-03-23T03:00:15;99673.97;;;15.88;50.82
12949;BME280;6539;49.476;8.484;2023-03-23T03:02:51;99681.22;;;15.94;50.71
12949;BME280;6539;49.476;8.484;2023-03-23T03:13:46;99669.03;;;15.83;51.13
12949;BME280;6539;49.476;8.484;2023-03-23T03:19:10;99657.38;;;15.88;50.86
12949;BME280;6539;49.476;8.484;2023-03-23T03:21:42;99662.28;;;15.84;51.02
12949;BME280;6539;49.476;8.484;2023-03-23T03:24:12;99659.81;;;15.77;51.19
12949;BME280;6539;49.476;8.484;2023-03-23T03:26:46;99663.97;;;15.81;51.08
12949;BME280;6539;49.476;8.484;2023-03-23T03:29:19;99661.22;;;15.81;51.14
12949;BME280;6539;49.476;8.484;2023-03-23T03:31:47;99668.75;;;15.90;50.80
12949;BME280;6539;49.476;8.484;2023-03-23T03:34:15;99669.69;;;15.96;50.55
12949;BME280;6539;49.476;8.484;2023-03-23T03:36:45;99665.41;;;16.04;50.22
12949;BME280;6539;49.476;8.484;2023-03-23T03:39:14;99677.25;;;15.95;50.42
12949;BME280;6539;49.476;8.484;2023-03-23T03:41:43;99669.06;;;15.92;50.41
12949;BME280;6539;49.476;8.484;2023-03-23T03:44:10;99657.22;;;16.00;50.18
12949;BME280;6539;49.476;8.484;2023-03-23T03:46:38;99661.69;;;15.98;50.22
12949;BME280;6539;49.476;8.484;2023-03-23T03:49:09;99658.00;;;16.01;50.15
12949;BME280;6539;49.476;8.484;2023-03-23T03:51:38;99666.75;;;15.90;50.49
12949;BME280;6539;49.476;8.484;2023-03-23T03:54:06;99664.00;;;15.90;50.57
12949;BME280;6539;49.476;8.484;2023-03-23T03:56:32;99663.84;;;15.94;50.54
12949;BME280;6539;49.476;8.484;2023-03-23T03:59:02;99662.63;;;15.95;50.68
12949;BME280;6539;49.476;8.484;2023-03-23T04:01:31;99661.25;;;15.99;50.44
12949;BME280;6539;49.476;8.484;2023-03-23T04:03:56;99666.00;;;15.99;50.50
12949;BME280;6539;49.476;8.484;2023-03-23T04:06:22;99656.94;;;15.98;50.52
12949;BME280;6539;49.476;8.484;2023-03-23T04:08:50;99663.25;;;15.99;50.53
12949;BME280;6539;49.476;8.484;2023-03-23T04:11:22;99666.47;;;15.97;50.67
12949;BME280;6539;49.476;8.484;2023-03-23T04:13:48;99666.31;;;16.01;50.50
12949;BME280;6539;49.476;8.484;2023-03-23T04:16:14;99671.56;;;16.08;50.49
12949;BME280;6539;49.476;8.484;2023-03-23T04:18:42;99667.25;;;16.07;50.53
12949;BME280;6539;49.476;8.484;2023-03-23T04:21:11;99668.78;;;16.08;50.52
12949;BME280;6539;49.476;8.484;2023-03-23T04:23:39;99674.78;;;16.07;50.98
12949;BME280;6539;49.476;8.484;2023-03-23T04:26:05;99679.88;;;16.08;51.52
12949;BME280;6539;49.476;8.484;2023-03-23T04:28:30;99681.88;;;16.08;51.86
12949;BME280;6539;49.476;8.484;2023-03-23T04:31:01;99691.09;;;16.14;51.96
12949;BME280;6539;49.476;8.484;2023-03-23T04:33:30;99687.41;;;16.08;52.42
12949;BME280;6539;49.476;8.484;2023-03-23T04:36:02;99691.25;;;16.10;52.56
12949;BME280;6539;49.476;8.484;2023-03-23T04:38:29;99694.16;;;16.07;52.86
12949;BME280;6539;49.476;8.484;2023-03-23T04:41:00;99700.16;;;16.05;52.63
12949;BME280;6539;49.476;8.484;2023-03-23T04:43:29;99694.94;;;16.07;52.88
12949;BME280;6539;49.476;8.484;2023-03-23T04:45:57;99695.06;;;15.94;53.59
12949;BME280;6539;49.476;8.484;2023-03-23T04:48:30;99699.06;;;16.02;53.53
12949;BME280;6539;49.476;8.484;2023-03-23T04:51:01;99700.78;;;16.00;53.99
12949;BME280;6539;49.476;8.484;2023-03-23T04:53:29;99708.44;;;15.96;54.80
12949;BME280;6539;49.476;8.484;2023-03-23T04:55:55;99708.44;;;15.87;55.26
12949;BME280;6539;49.476;8.484;2023-03-23T04:58:21;99711.22;;;15.87;55.61
12949;BME280;6539;49.476;8.484;2023-03-23T05:00:48;99719.50;;;15.87;56.16
12949;BME280;6539;49.476;8.484;2023-03-23T05:03:20;99716.91;;;15.92;56.30
12949;BME280;6539;49.476;8.484;2023-03-23T05:05:46;99715.19;;;15.86;55.84
12949;BME280;6539;49.476;8.484;2023-03-23T05:08:21;99706.75;;;15.89;56.10
12949;BME280;6539;49.476;8.484;2023-03-23T05:10:56;99715.19;;;15.86;56.37
12949;BME280;6539;49.476;8.484;2023-03-23T05:13:22;99717.63;;;15.75;56.20
12949;BME280;6539;49.476;8.484;2023-03-23T05:15:48;99727.91;;;15.74;56.58
12949;BME280;6539;49.476;8.484;2023-03-23T05:18:19;99725.50;;;15.85;56.35
12949;BME280;6539;49.476;8.484;2023-03-23T05:20:46;99721.63;;;15.83;56.21
12949;BME280;6539;49.476;8.484;2023-03-23T05:23:12;99722.28;;;15.87;56.06
12949;BME280;6539;49.476;8.484;2023-03-23T05:25:41;99718.13;;;15.82;56.13
12949;BME280;6539;49.476;8.484;2023-03-23T05:28:09;99721.94;;;15.76;56.15
12949;BME280;6539;49.476;8.484;2023-03-23T05:30:37;99721.16;;;15.75;56.06
12949;BME280;6539;49.476;8.484;2023-03-23T05:33:06;99726.53;;;15.79;56.13
12949;BME280;6539;49.476;8.484;2023-03-23T05:35:34;99723.19;;;15.84;55.96
12949;BME280;6539;49.476;8.484;2023-03-23T05:38:00;99729.19;;;15.82;55.72
12949;BME280;6539;49.476;8.484;2023-03-23T05:40:27;99730.91;;;15.89;55.45
12949;BME280;6539;49.476;8.484;2023-03-23T05:42:56;99720.09;;;15.82;55.94
12949;BME280;6539;49.476;8.484;2023-03-23T05:45:25;99734.56;;;15.86;55.64
12949;BME280;6539;49.476;8.484;2023-03-23T05:47:56;99734.88;;;15.88;55.36
12949;BME280;6539;49.476;8.484;2023-03-23T05:50:22;99720.56;;;15.80;55.72
12949;BME280;6539;49.476;8.484;2023-03-23T05:52:48;99732.09;;;15.79;55.69
12949;BME280;6539;49.476;8.484;2023-03-23T05:55:14;99743.03;;;15.82;55.78
12949;BME280;6539;49.476;8.484;2023-03-23T05:57:42;99729.03;;;15.86;55.54
12949;BME280;6539;49.476;8.484;2023-03-23T06:00:12;99742.91;;;15.95;55.46
12949;BME280;6539;49.476;8.484;2023-03-23T06:02:47;99751.53;;;15.97;55.70
12949;BME280;6539;49.476;8.484;2023-03-23T06:05:14;99757.88;;;16.25;58.15
12949;BME280;6539;49.476;8.484;2023-03-23T06:07:43;99749.75;;;16.39;57.48
12949;BME280;6539;49.476;8.484;2023-03-23T06:10:12;99756.53;;;16.38;54.81
12949;BME280;6539;49.476;8.484;2023-03-23T06:12:40;99770.13;;;16.63;58.81
12949;BME280;6539;49.476;8.484;2023-03-23T06:15:11;99763.78;;;16.63;53.63
12949;BME280;6539;49.476;8.484;2023-03-23T06:17:38;99761.19;;;16.59;55.59
12949;BME280;6539;49.476;8.484;2023-03-23T06:20:05;99761.19;;;16.59;56.66
12949;BME280;6539;49.476;8.484;2023-03-23T06:22:39;99759.03;;;16.54;55.44
12949;BME280;6539;49.476;8.484;2023-03-23T06:25:10;99762.25;;;16.53;54.05
12949;BME280;6539;49.476;8.484;2023-03-23T06:27:41;99774.91;;;16.54;54.81
12949;BME280;6539;49.476;8.484;2023-03-23T06:30:10;99763.81;;;16.54;55.60
12949;BME280;6539;49.476;8.484;2023-03-23T06:32:38;99759.97;;;16.60;54.19
12949;BME280;6539;49.476;8.484;2023-03-23T06:35:05;99765.97;;;16.59;54.14
12949;BME280;6539;49.476;8.484;2023-03-23T06:37:31;99771.50;;;16.59;53.27
12949;BME280;6539;49.476;8.484;2023-03-23T06:39:59;99775.34;;;16.61;53.16
12949;BME280;6539;49.476;8.484;2023-03-23T06:42:26;99761.63;;;16.49;52.98
12949;BME280;6539;49.476;8.484;2023-03-23T06:44:52;99763.31;;;16.46;53.28
12949;BME280;6539;49.476;8.484;2023-03-23T06:47:24;99772.22;;;16.41;53.46
12949;BME280;6539;49.476;8.484;2023-03-23T06:49:54;99779.47;;;16.39;53.75
12949;BME280;6539;49.476;8.484;2023-03-23T06:52:20;99786.69;;;16.36;53.62
12949;BME280;6539;49.476;8.484;2023-03-23T06:54:55;99786.81;;;16.33;54.03
12949;BME280;6539;49.476;8.484;2023-03-23T06:57:23;99794.97;;;16.27;54.03
12949;BME280;6539;49.476;8.484;2023-03-23T06:59:49;99794.19;;;16.27;54.12
12949;BME280;6539;49.476;8.484;2023-03-23T07:02:18;99806.66;;;16.22;54.55
12949;BME280;6539;49.476;8.484;2023-03-23T07:04:46;99810.97;;;16.23;55.24
12949;BME280;6539;49.476;8.484;2023-03-23T07:07:12;99814.84;;;16.26;54.68
12949;BME280;6539;49.476;8.484;2023-03-23T07:09:40;99839.00;;;16.25;54.80
12949;BME280;6539;49.476;8.484;2023-03-23T07:12:06;99833.41;;;16.16;54.96
12949;BME280;6539;49.476;8.484;2023-03-23T07:14:33;99828.63;;;16.08;55.69
12949;BME280;6539;49.476;8.484;2023-03-23T07:17:03;99841.25;;;16.09;55.72
12949;BME280;6539;49.476;8.484;2023-03-23T07:19:29;99837.25;;;16.10;56.19
12949;BME280;6539;49.476;8.484;2023-03-23T07:21:57;99837.19;;;16.00;56.58
12949;BME280;6539;49.476;8.484;2023-03-23T07:24:22;99834.56;;;15.97;57.01
12949;BME280;6539;49.476;8.484;2023-03-23T07:26:51;99831.50;;;15.95;57.45
12949;BME280;6539;49.476;8.484;2023-03-23T07:29:21;99842.88;;;15.97;57.55
12949;BME280;6539;49.476;8.484;2023-03-23T07:31:50;99847.38;;;16.03;57.93
12949;BME280;6539;49.476;8.484;2023-03-23T07:34:17;99850.16;;;16.03;57.95
12949;BME280;6539;49.476;8.484;2023-03-23T07:36:43;99846.75;;;15.99;58.51
12949;BME280;6539;49.476;8.484;2023-03-23T07:39:12;99848.56;;;15.93;58.59
12949;BME280;6539;49.476;8.484;2023-03-23T07:41:39;99854.22;;;15.90;58.91
12949;BME280;6539;49.476;8.484;2023-03-23T07:44:05;99850.97;;;15.82;59.61
12949;BME280;6539;49.476;8.484;2023-03-23T07:46:34;99855.28;;;15.83;59.67
12949;BME280;6539;49.476;8.484;2023-03-23T07:49:03;99866.34;;;15.83;59.84
12949;BME280;6539;49.476;8.484;2023-03-23T07:51:36;99875.69;;;15.77;60.31
12949;BME280;6539;49.476;8.484;2023-03-23T07:54:05;99878.41;;;15.68;60.80
12949;BME280;6539;49.476;8.484;2023-03-23T07:56:34;99876.72;;;15.70;61.14
12949;BME280;6539;49.476;8.484;2023-03-23T07:59:02;99867.38;;;15.77;60.71
12949;BME280;6539;49.476;8.484;2023-03-23T08:01:28;99874.91;;;15.76;60.86
12949;BME280;6539;49.476;8.484;2023-03-23T08:03:57;99877.19;;;15.69;61.16
12949;BME280;6539;49.476;8.484;2023-03-23T08:06:24;99871.66;;;15.69;61.20
12949;BME280;6539;49.476;8.484;2023-03-23T08:08:53;99877.75;;;15.64;61.52
12949;BME280;6539;49.476;8.484;2023-03-23T08:11:19;99880.09;;;15.65;61.47
12949;BME280;6539;49.476;8.484;2023-03-23T08:13:46;99883.94;;;15.68;61.49
12949;BME280;6539;49.476;8.484;2023-03-23T08:16:12;99892.19;;;15.59;61.79
12949;BME280;6539;49.476;8.484;2023-03-23T08:18:39;99888.19;;;15.60;61.88
12949;BME280;6539;49.476;8.484;2023-03-23T08:21:07;99893.94;;;15.65;61.75
12949;BME280;6539;49.476;8.484;2023-03-23T08:23:38;99898.38;;;15.63;61.69
12949;BME280;6539;49.476;8.484;2023-03-23T08:26:06;99892.53;;;15.61;61.93
12949;BME280;6539;49.476;8.484;2023-03-23T08:28:36;99899.25;;;15.60;62.09
12949;BME280;6539;49.476;8.484;2023-03-23T08:31:08;99899.72;;;15.58;62.25
12949;BME280;6539;49.476;8.484;2023-03-23T08:33:37;99894.81;;;15.62;62.34
12949;BME280;6539;49.476;8.484;2023-03-23T08:36:04;99902.66;;;15.64;62.30
12949;BME280;6539;49.476;8.484;2023-03-23T08:38:33;99904.34;;;15.61;62.47
12949;BME280;6539;49.476;8.484;2023-03-23T08:41:04;99906.22;;;15.64;62.53
12949;BME280;6539;49.476;8.484;2023-03-23T08:43:35;99903.13;;;15.62;62.46
12949;BME280;6539;49.476;8.484;2023-03-23T08:46:01;99917.09;;;15.59;62.72
12949;BME280;6539;49.476;8.484;2023-03-23T08:48:32;99919.91;;;15.68;62.88
12949;BME280;6539;49.476;8.484;2023-03-23T08:51:02;99920.44;;;15.54;64.00
12949;BME280;6539;49.476;8.484;2023-03-23T08:53:33;99915.22;;;15.56;64.64
12949;BME280;6539;49.476;8.484;2023-03-23T08:56:06;99912.91;;;15.54;65.45
12949;BME280;6539;49.476;8.484;2023-03-23T08:58:36;99909.13;;;15.61;65.46
12949;BME280;6539;49.476;8.484;2023-03-23T09:01:07;99907.09;;;15.61;65.09
12949;BME280;6539;49.476;8.484;2023-03-23T09:03:34;99904.78;;;15.60;65.34
12949;BME280;6539;49.476;8.484;2023-03-23T09:06:07;99925.19;;;15.75;65.20
12949;BME280;6539;49.476;8.484;2023-03-23T09:08:35;99930.41;;;15.73;64.65
12949;BME280;6539;49.476;8.484;2023-03-23T09:11:07;99929.63;;;15.72;63.84
12949;BME280;6539;49.476;8.484;2023-03-23T09:13:38;99927.50;;;15.76;64.13
12949;BME280;6539;49.476;8.484;2023-03-23T09:16:08;99923.84;;;15.79;63.08
12949;BME280;6539;49.476;8.484;2023-03-23T09:18:35;99933.56;;;15.84;62.67
12949;BME280;6539;49.476;8.484;2023-03-23T09:21:04;99945.47;;;15.93;61.45
12949;BME280;6539;49.476;8.484;2023-03-23T09:23:33;99955.81;;;16.02;61.12
12949;BME280;6539;49.476;8.484;2023-03-23T09:26:02;99952.75;;;16.09;60.60
12949;BME280;6539;49.476;8.484;2023-03-23T09:28:31;99947.44;;;16.15;59.92
12949;BME280;6539;49.476;8.484;2023-03-23T09:30:57;99955.91;;;16.20;59.13
12949;BME280;6539;49.476;8.484;2023-03-23T09:33:29;99956.28;;;16.31;59.57
12949;BME280;6539;49.476;8.484;2023-03-23T09:36:01;99961.53;;;16.38;58.82
12949;BME280;6539;49.476;8.484;2023-03-23T09:38:31;99961.13;;;16.49;58.19
12949;BME280;6539;49.476;8.484;2023-03-23T09:48:37;99972.47;;;16.42;58.73
12949;BME280;6539;49.476;8.484;2023-03-23T09:51:17;99974.16;;;16.39;60.18
12949;BME280;6539;49.476;8.484;2023-03-23T09:53:52;99976.13;;;16.30;60.30
12949;BME280;6539;49.476;8.484;2023-03-23T09:56:23;99965.81;;;16.30;60.55
12949;BME280;6539;49.476;8.484;2023-03-23T09:59:01;99971.53;;;16.36;60.67
12949;BME280;6539;49.476;8.484;2023-03-23T10:01:44;99966.94;;;16.42;60.53
12949;BME280;6539;49.476;8.484;2023-03-23T10:06:47;99958.47;;;16.36;60.53
12949;BME280;6539;49.476;8.484;2023-03-23T10:09:17;99964.00;;;16.36;60.34
12949;BME280;6539;49.476;8.484;2023-03-23T10:15:16;99957.06;;;16.32;60.58
12949;BME280;6539;49.476;8.484;2023-03-23T10:25:54;99942.66;;;16.15;61.29
12949;BME280;6539;49.476;8.484;2023-03-23T10:28:46;99948.84;;;16.19;61.16
12949;BME280;6539;49.476;8.484;2023-03-23T10:31:25;99943.16;;;16.23;61.18
12949;BME280;6539;49.476;8.484;2023-03-23T10:34:14;99937.59;;;16.23;61.16
12949;BME280;6539;49.476;8.484;2023-03-23T10:37:19;99931.91;;;16.26;61.08
12949;BME280;6539;49.476;8.484;2023-03-23T10:39:53;99940.28;;;16.35;60.70
12949;BME280;6539;49.476;8.484;2023-03-23T10:42:33;99936.00;;;16.43;60.42
12949;BME280;6539;49.476;8.484;2023-03-23T10:47:51;99951.19;;;16.69;59.06
12949;BME280;6539;49.476;8.484;2023-03-23T10:50:30;99962.00;;;16.76;58.49
12949;BME280;6539;49.476;8.484;2023-03-23T10:53:00;99950.03;;;16.80;58.69
12949;BME280;6539;49.476;8.484;2023-03-23T10:55:41;99952.97;;;16.94;58.90
12949;BME280;6539;49.476;8.484;2023-03-23T10:58:21;99959.91;;;16.99;59.09
12949;BME280;6539;49.476;8.484;2023-03-23T11:00:48;99960.03;;;16.95;59.11
12949;BME280;6539;49.476;8.484;2023-03-23T11:05:56;99950.78;;;16.89;59.86
12949;BME280;6539;49.476;8.484;2023-03-23T11:08:28;99949.84;;;16.74;60.24
12949;BME280;6539;49.476;8.484;2023-03-23T11:11:17;99960.31;;;16.70;60.52
12949;BME280;6539;49.476;8.484;2023-03-23T11:13:49;99955.53;;;16.70;60.89
12949;BME280;6539;49.476;8.484;2023-03-23T11:16:32;99955.50;;;16.61;61.21
12949;BME280;6539;49.476;8.484;2023-03-23T11:19:11;99958.41;;;16.58;61.42
12949;BME280;6539;49.476;8.484;2023-03-23T11:21:39;99965.97;;;16.57;61.76
12949;BME280;6539;49.476;8.484;2023-03-23T11:24:07;99974.78;;;16.43;62.31
12949;BME280;6539;49.476;8.484;2023-03-23T11:26:36;99972.75;;;16.35;63.00
12949;BME280;6539;49.476;8.484;2023-03-23T11:31:48;99969.16;;;16.25;63.58
12949;BME280;6539;49.476;8.484;2023-03-23T11:36:52;99943.94;;;16.23;63.57
12949;BME280;6539;49.476;8.484;2023-03-23T11:39:29;99943.81;;;16.36;62.97
12949;BME280;6539;49.476;8.484;2023-03-23T11:41:59;99936.28;;;16.36;62.56
12949;BME280;6539;49.476;8.484;2023-03-23T11:44:42;99930.13;;;16.32;62.42
12949;BME280;6539;49.476;8.484;2023-03-23T11:53:02;99943.09;;;16.44;62.33
12949;BME280;6539;49.476;8.484;2023-03-23T11:55:51;99941.22;;;16.41;62.56
12949;BME280;6539;49.476;8.484;2023-03-23T11:58:24;99944.47;;;16.40;62.72
12949;BME280;6539;49.476;8.484;2023-03-23T12:18:40;99937.81;;;16.37;61.70
12949;BME280;6539;49.476;8.484;2023-03-23T12:27:14;99944.50;;;16.49;61.76
12949;BME280;6539;49.476;8.484;2023-03-23T12:30:31;99933.28;;;16.52;61.59
12949;BME280;6539;49.476;8.484;2023-03-23T12:33:11;99923.13;;;16.58;61.20
12949;BME280;6539;49.476;8.484;2023-03-23T12:41:24;99908.69;;;16.63;60.46
12949;BME280;6539;49.476;8.484;2023-03-23T12:44:08;99906.84;;;16.60;60.72
12949;BME280;6539;49.476;8.484;2023-03-23T12:49:49;99921.34;;;16.64;60.42
12949;BME280;6539;49.476;8.484;2023-03-23T12:58:12;99881.25;;;16.56;60.48
12949;BME280;6539;49.476;8.484;2023-03-23T13:01:04;99890.94;;;16.52;60.95
12949;BME280;6539;49.476;8.484;2023-03-23T13:06:22;99891.59;;;16.65;60.72
12949;BME280;6539;49.476;8.484;2023-03-23T13:09:11;99880.19;;;16.63;60.67
12949;BME280;6539;49.476;8.484;2023-03-23T13:11:40;99887.75;;;16.53;60.91
12949;BME280;6539;49.476;8.484;2023-03-23T13:17:51;99885.28;;;16.55;60.79
12949;BME280;6539;49.476;8.484;2023-03-23T13:23:35;99888.16;;;16.52;60.28
12949;BME280;6539;49.476;8.484;2023-03-23T13:26:21;99891.41;;;16.50;59.96
12949;BME280;6539;49.476;8.484;2023-03-23T13:28:57;99885.88;;;16.50;59.84
12949;BME280;6539;49.476;8.484;2023-03-23T13:34:29;99891.28;;;16.54;59.73
12949;BME280;6539;49.476;8.484;2023-03-23T13:37:03;99890.22;;;16.60;59.19
12949;BME280;6539;49.476;8.484;2023-03-23T13:39:34;99891.13;;;16.57;59.26
12949;BME280;6539;49.476;8.484;2023-03-23T13:45:05;99901.47;;;16.66;58.91
12949;BME280;6539;49.476;8.484;2023-03-23T13:47:40;99902.56;;;16.68;58.12
12949;BME280;6539;49.476;8.484;2023-03-23T14:11:16;99874.19;;;16.55;58.08
12949;BME280;6539;49.476;8.484;2023-03-23T14:13:59;99873.88;;;16.53;58.03
12949;BME280;6539;49.476;8.484;2023-03-23T14:16:42;99864.78;;;16.53;57.96
12949;BME280;6539;49.476;8.484;2023-03-23T14:19:16;99866.66;;;16.56;57.81
12949;BME280;6539;49.476;8.484;2023-03-23T14:21:57;99863.22;;;16.52;58.19
12949;BME280;6539;49.476;8.484;2023-03-23T14:24:26;99864.94;;;16.58;57.96
12949;BME280;6539;49.476;8.484;2023-03-23T14:27:10;99869.25;;;16.50;58.37
12949;BME280;6539;49.476;8.484;2023-03-23T14:29:38;99867.06;;;16.45;58.58
12949;BME280;6539;49.476;8.484;2023-03-23T14:32:07;99867.47;;;16.35;59.00
12949;BME280;6539;49.476;8.484;2023-03-23T14:34:38;99870.44;;;16.40;60.16
12949;BME280;6539;49.476;8.484;2023-03-23T14:37:14;99870.81;;;16.51;59.66
12949;BME280;6539;49.476;8.484;2023-03-23T14:39:49;99870.81;;;16.51;59.87
12949;BME280;6539;49.476;8.484;2023-03-23T14:42:21;99860.47;;;16.52;59.71
12949;BME280;6539;49.476;8.484;2023-03-23T14:44:52;99865.56;;;16.53;59.59
12949;BME280;6539;49.476;8.484;2023-03-23T14:47:34;99875.41;;;16.54;59.81
12949;BME280;6539;49.476;8.484;2023-03-23T14:50:05;99868.75;;;16.43;60.47
12949;BME280;6539;49.476;8.484;2023-03-23T14:52:36;99869.03;;;16.36;61.31
12949;BME280;6539;49.476;8.484;2023-03-23T14:55:20;99876.59;;;16.44;61.08
12949;BME280;6539;49.476;8.484;2023-03-23T14:57:47;99879.94;;;16.39;61.69
12949;BME280;6539;49.476;8.484;2023-03-23T15:00:30;99881.81;;;16.42;61.55
12949;BME280;6539;49.476;8.484;2023-03-23T15:03:01;99880.56;;;16.34;62.06
12949;BME280;6539;49.476;8.484;2023-03-23T15:05:42;99880.88;;;16.36;61.97
12949;BME280;6539;49.476;8.484;2023-03-23T15:08:20;99870.72;;;16.33;62.21
12949;BME280;6539;49.476;8.484;2023-03-23T15:11:35;99876.75;;;16.41;61.81
12949;BME280;6539;49.476;8.484;2023-03-23T15:13:57;99876.59;;;16.44;61.89
12949;BME280;6539;49.476;8.484;2023-03-23T15:16:30;99866.47;;;16.50;61.63
12949;BME280;6539;49.476;8.484;2023-03-23T15:19:16;99878.19;;;16.54;61.39
12949;BME280;6539;49.476;8.484;2023-03-23T15:21:53;99885.13;;;16.59;61.06
12949;BME280;6539;49.476;8.484;2023-03-23T15:24:41;99876.69;;;16.62;61.20
12949;BME280;6539;49.476;8.484;2023-03-23T15:27:15;99857.69;;;16.52;61.14
12949;BME280;6539;49.476;8.484;2023-03-23T15:32:30;99847.03;;;16.32;62.12
12949;BME280;6539;49.476;8.484;2023-03-23T15:34:57;99854.09;;;16.33;61.98
12949;BME280;6539;49.476;8.484;2023-03-23T15:37:33;99865.19;;;16.42;61.74
12949;BME280;6539;49.476;8.484;2023-03-23T15:40:05;99867.38;;;16.47;61.38
12949;BME280;6539;49.476;8.484;2023-03-23T15:42:34;99875.69;;;16.47;61.49
12949;BME280;6539;49.476;8.484;2023-03-23T15:52:55;99856.97;;;16.69;61.24
12949;BME280;6539;49.476;8.484;2023-03-23T15:55:36;99843.41;;;16.71;61.35
12949;BME280;6539;49.476;8.484;2023-03-23T15:58:13;99828.63;;;16.74;61.65